createdAt,value
2023-02-11T00:00:53.363Z,30
2023-02-11T00:02:53.546Z,32
2023-02-11T00:04:53.633Z,40
2023-02-11T00:06:53.690Z,45
2023-02-11T00:08:53.816Z,38
2023-02-11T00:10:53.743Z,34
2023-02-11T00:12:53.836Z,37
2023-02-11T00:14:54.135Z,47
2023-02-11T00:16:54.161Z,41
2023-02-11T00:18:54.119Z,39
2023-02-11T00:20:54.207Z,44
2023-02-11T00:22:54.316Z,42
2023-02-11T00:24:54.394Z,39
2023-02-11T00:26:54.430Z,39
2023-02-11T00:28:54.610Z,42
2023-02-11T00:30:54.635Z,48
2023-02-11T00:32:56.054Z,48
2023-02-11T00:34:54.855Z,48
2023-02-11T00:36:54.809Z,52
2023-02-11T00:38:54.928Z,51
2023-02-11T00:40:55.180Z,57
2023-02-11T00:42:55.725Z,59
2023-02-11T00:44:55.274Z,53
2023-02-11T00:46:55.271Z,56
2023-02-11T00:48:55.353Z,61
2023-02-11T00:50:55.446Z,61
2023-02-11T00:52:55.666Z,65
2023-02-11T00:54:55.736Z,68
2023-02-11T00:56:55.830Z,70
2023-02-11T00:58:55.817Z,72
2023-02-11T01:00:56.010Z,71
2023-02-11T01:02:56.013Z,70
2023-02-11T01:04:56.160Z,57
2023-02-11T01:06:56.163Z,60
2023-02-11T01:08:56.359Z,59
2023-02-11T01:10:56.397Z,58
2023-02-11T01:13:05.719Z,55
2023-02-11T01:14:56.468Z,57
2023-02-11T01:16:56.584Z,56
2023-02-11T01:18:56.676Z,57
2023-02-11T01:20:56.741Z,59
2023-02-11T01:22:56.872Z,58
2023-02-11T01:24:56.922Z,61
2023-02-11T01:26:57.017Z,63
2023-02-11T01:28:57.222Z,61
2023-02-11T01:30:57.397Z,63
2023-02-11T01:32:57.419Z,62
2023-02-11T01:34:57.369Z,63
2023-02-11T01:36:57.582Z,61
2023-02-11T01:38:57.688Z,68
2023-02-11T01:40:57.680Z,68
2023-02-11T01:42:57.905Z,67
2023-02-11T01:44:57.967Z,65
2023-02-11T01:46:57.938Z,63
2023-02-11T01:48:58.171Z,64
2023-02-11T01:50:58.118Z,63
2023-02-11T01:52:58.218Z,64
2023-02-11T01:54:58.305Z,66
2023-02-11T01:56:58.394Z,61
2023-02-11T01:59:02.785Z,54
2023-02-11T02:00:59.301Z,52
2023-02-11T02:03:00.073Z,44
2023-02-11T02:05:03.312Z,42
2023-02-11T02:07:03.171Z,38
2023-02-11T02:09:05.930Z,37
2023-02-11T02:11:01.211Z,38
2023-02-11T02:13:02.598Z,33
2023-02-11T02:15:07.651Z,33
2023-02-11T02:17:03.479Z,35
2023-02-11T02:23:01.783Z,38
2023-02-11T02:27:11.201Z,37
2023-02-11T02:31:06.066Z,34
2023-02-11T02:35:08.274Z,32
2023-02-11T02:37:09.721Z,29
2023-02-11T02:39:01.958Z,30
2023-02-11T02:41:09.760Z,29
2023-02-11T02:43:01.178Z,30
2023-02-11T02:47:06.244Z,37
2023-02-11T02:53:00.791Z,38
2023-02-11T02:55:00.765Z,40
2023-02-11T02:57:00.876Z,39
2023-02-11T02:59:00.964Z,43
2023-02-11T03:01:01.142Z,46
2023-02-11T03:03:01.158Z,55
2023-02-11T03:05:01.221Z,57
2023-02-11T03:07:01.328Z,58
2023-02-11T03:09:01.428Z,57
2023-02-11T03:11:01.543Z,56
2023-02-11T03:13:01.620Z,54
2023-02-11T03:15:01.713Z,55
2023-02-11T03:17:01.863Z,55
2023-02-11T03:19:01.895Z,53
2023-02-11T03:21:01.959Z,52
2023-02-11T03:23:02.059Z,48
2023-02-11T03:25:02.145Z,45
2023-02-11T03:27:02.260Z,43
2023-02-11T03:29:02.332Z,36
2023-02-11T03:31:02.526Z,33
2023-02-11T03:33:02.525Z,34
2023-02-11T03:35:02.625Z,33
2023-02-11T03:37:02.668Z,33
2023-02-11T03:39:02.780Z,33
2023-02-11T03:41:02.868Z,33
2023-02-11T03:43:02.981Z,35
2023-02-11T03:45:03.078Z,36
2023-02-11T03:47:03.167Z,39
2023-02-11T03:49:07.968Z,43
2023-02-11T03:51:03.408Z,42
2023-02-11T03:53:03.535Z,42
2023-02-11T03:55:03.517Z,43
2023-02-11T03:57:03.614Z,43
2023-02-11T03:59:03.722Z,42
2023-02-11T04:01:03.859Z,44
2023-02-11T04:03:04.005Z,45
2023-02-11T04:05:04.021Z,48
2023-02-11T04:07:04.113Z,55
2023-02-11T04:09:04.196Z,56
2023-02-11T04:11:04.405Z,56
2023-02-11T04:13:04.546Z,52
2023-02-11T04:15:04.534Z,39
2023-02-11T04:17:04.629Z,38
2023-02-11T04:19:04.717Z,34
2023-02-11T04:21:07.061Z,33
2023-02-11T04:23:04.910Z,33
2023-02-11T04:25:05.014Z,33
2023-02-11T04:27:05.115Z,31
2023-02-11T04:29:05.253Z,31
2023-02-11T04:31:05.570Z,32
2023-02-11T04:33:05.418Z,31
2023-02-11T04:37:05.611Z,31
2023-02-11T04:39:05.693Z,37
2023-02-11T04:41:05.828Z,43
2023-02-11T04:43:05.897Z,46
2023-02-11T04:45:06.008Z,49
2023-02-11T04:47:06.118Z,49
2023-02-11T04:49:06.216Z,47
2023-02-11T04:51:06.318Z,52
2023-02-11T04:53:06.425Z,52
2023-02-11T04:55:13.362Z,56
2023-02-11T04:57:06.602Z,57
2023-02-11T04:59:06.674Z,61
2023-02-11T05:01:07.048Z,60
2023-02-11T05:03:06.904Z,58
2023-02-11T05:05:07.016Z,64
2023-02-11T05:07:07.120Z,63
2023-02-11T05:09:07.194Z,60
2023-02-11T05:11:07.269Z,57
2023-02-11T05:13:07.397Z,56
2023-02-11T05:15:07.480Z,52
2023-02-11T05:17:07.678Z,53
2023-02-11T05:19:07.791Z,100
2023-02-11T05:21:07.800Z,72
2023-02-11T05:23:07.905Z,68
2023-02-11T05:25:07.996Z,67
2023-02-11T05:27:08.120Z,65
2023-02-11T05:29:08.205Z,63
2023-02-11T05:31:08.345Z,62
2023-02-11T05:33:08.407Z,62
2023-02-11T05:35:08.521Z,55
2023-02-11T05:37:08.632Z,60
2023-02-11T05:39:08.709Z,62
2023-02-11T05:41:08.816Z,61
2023-02-11T05:43:08.934Z,66
2023-02-11T05:45:09.045Z,62
2023-02-11T05:47:09.119Z,61
2023-02-11T05:49:09.313Z,64
2023-02-11T05:51:09.358Z,61
2023-02-11T05:53:09.459Z,66
2023-02-11T05:55:09.550Z,66
2023-02-11T05:57:09.633Z,69
2023-02-11T05:59:09.723Z,60
2023-02-11T06:01:09.831Z,58
2023-02-11T06:03:09.921Z,55
2023-02-11T06:05:10.048Z,59
2023-02-11T06:07:10.160Z,54
2023-02-11T06:09:10.275Z,56
2023-02-11T06:11:10.325Z,68
2023-02-11T06:13:10.431Z,64
2023-02-11T06:15:10.528Z,62
2023-02-11T06:17:10.612Z,67
2023-02-11T06:19:10.710Z,73
2023-02-11T06:21:10.817Z,73
2023-02-11T06:23:10.939Z,73
2023-02-11T06:25:11.010Z,75
2023-02-11T06:27:11.110Z,76
2023-02-11T06:29:11.227Z,81
2023-02-11T06:33:11.444Z,81
2023-02-11T06:35:12.261Z,83
2023-02-11T06:37:11.778Z,84
2023-02-11T06:39:11.772Z,85
2023-02-11T06:41:11.904Z,87
2023-02-11T06:45:12.088Z,87
2023-02-11T06:47:12.172Z,85
2023-02-11T06:49:12.302Z,79
2023-02-11T06:51:12.414Z,105
2023-02-11T06:53:12.495Z,141
2023-02-11T06:55:12.700Z,85
2023-02-11T06:57:12.728Z,83
2023-02-11T06:59:12.829Z,88
2023-02-11T07:01:12.947Z,87
2023-02-11T07:03:13.221Z,81
2023-02-11T07:05:13.173Z,82
2023-02-11T07:07:13.269Z,82
2023-02-11T07:09:13.509Z,79
2023-02-11T07:11:13.460Z,80
2023-02-11T07:13:13.565Z,74
2023-02-11T07:15:15.824Z,72
2023-02-11T07:17:13.762Z,109
2023-02-11T07:19:13.894Z,100
2023-02-11T07:21:14.015Z,99
2023-02-11T07:23:14.133Z,103
2023-02-11T07:25:14.233Z,103
2023-02-11T07:27:14.326Z,105
2023-02-11T07:29:14.663Z,114
2023-02-11T07:31:14.705Z,115
2023-02-11T07:33:14.672Z,117
2023-02-11T07:35:14.794Z,133
2023-02-11T07:37:14.909Z,134
2023-02-11T07:39:15.028Z,130
2023-02-11T07:41:15.124Z,140
2023-02-11T07:43:15.225Z,136
2023-02-11T07:45:15.323Z,111
2023-02-11T07:47:15.445Z,99
2023-02-11T07:49:15.597Z,89
2023-02-11T07:51:15.654Z,84
2023-02-11T07:53:15.784Z,87
2023-02-11T07:55:15.879Z,81
2023-02-11T07:57:16.004Z,70
2023-02-11T07:59:16.102Z,68
2023-02-11T08:01:16.328Z,69
2023-02-11T08:03:16.366Z,60
2023-02-11T08:05:16.468Z,63
2023-02-11T08:07:16.574Z,65
2023-02-11T08:09:16.828Z,62
2023-02-11T08:11:16.801Z,65
2023-02-11T08:13:16.904Z,64
2023-02-11T08:15:16.986Z,66
2023-02-11T08:17:17.100Z,70
2023-02-11T08:19:17.188Z,76
2023-02-11T08:21:17.305Z,79
2023-02-11T08:23:17.389Z,78
2023-02-11T08:25:17.564Z,70
2023-02-11T08:27:17.593Z,59
2023-02-11T08:29:20.880Z,67
2023-02-11T08:31:22.850Z,76
2023-02-11T08:33:23.788Z,99
2023-02-11T08:35:18.250Z,90
2023-02-11T08:37:23.240Z,85
2023-02-11T08:39:24.727Z,85
2023-02-11T08:41:21.630Z,81
2023-02-11T08:43:22.506Z,81
2023-02-11T08:45:20.775Z,80
2023-02-11T08:47:19.995Z,74
2023-02-11T08:49:18.884Z,74
2023-02-11T08:51:19.170Z,63
2023-02-11T08:53:22.560Z,64
2023-02-11T08:55:22.711Z,64
2023-02-11T08:57:23.753Z,84
2023-02-11T08:59:22.739Z,72
2023-02-11T09:01:23.522Z,68
2023-02-11T09:03:24.068Z,66
2023-02-11T09:05:22.965Z,69
2023-02-11T09:07:22.582Z,71
2023-02-11T09:09:20.340Z,69
2023-02-11T09:11:22.659Z,70
2023-02-11T09:13:21.025Z,75
2023-02-11T09:15:20.577Z,74
2023-02-11T09:17:25.817Z,76
2023-02-11T09:19:23.627Z,76
2023-02-11T09:21:27.303Z,84
2023-02-11T09:23:22.008Z,86
2023-02-11T09:25:21.504Z,81
2023-02-11T09:27:21.250Z,81
2023-02-11T09:29:21.338Z,84
2023-02-11T09:31:23.736Z,84
2023-02-11T09:33:21.843Z,84
2023-02-11T09:35:23.150Z,82
2023-02-11T09:37:28.810Z,85
2023-02-11T09:39:22.470Z,82
2023-02-11T09:41:22.257Z,88
2023-02-11T09:43:25.936Z,86
2023-02-11T09:45:22.786Z,85
2023-02-11T09:47:23.942Z,106
2023-02-11T09:49:22.569Z,82
2023-02-11T09:51:22.404Z,76
2023-02-11T09:53:22.450Z,77
2023-02-11T09:55:23.209Z,69
2023-02-11T09:57:28.591Z,65
2023-02-11T09:59:29.875Z,59
2023-02-11T10:01:25.433Z,57
2023-02-11T10:03:26.076Z,60
2023-02-11T10:05:29.875Z,74
2023-02-11T10:09:25.087Z,55
2023-02-11T10:11:31.572Z,50
2023-02-11T10:13:28.701Z,34
2023-02-11T10:15:24.588Z,36
2023-02-11T10:17:25.844Z,37
2023-02-11T10:19:25.569Z,36
2023-02-11T10:21:28.798Z,34
2023-02-11T10:23:24.956Z,39
2023-02-11T10:25:24.646Z,46
2023-02-11T10:27:32.880Z,43
2023-02-11T10:29:24.404Z,43
2023-02-11T10:31:24.693Z,44
2023-02-11T10:33:27.370Z,46
2023-02-11T10:35:24.704Z,46
2023-02-11T10:37:25.234Z,49
2023-02-11T10:39:26.094Z,34
2023-02-11T10:43:33.105Z,35
2023-02-11T10:45:29.147Z,37
2023-02-11T10:47:27.389Z,70
2023-02-11T10:49:25.436Z,45
2023-02-11T10:51:25.579Z,40
2023-02-11T10:53:25.937Z,39
2023-02-11T10:55:26.953Z,44
2023-02-11T10:57:26.628Z,49
2023-02-11T10:59:30.845Z,39
2023-02-11T11:01:33.021Z,45
2023-02-11T11:03:26.248Z,45
2023-02-11T11:07:26.413Z,46
2023-02-11T11:09:28.018Z,53
2023-02-11T11:11:28.712Z,41
2023-02-11T11:13:29.399Z,45
2023-02-11T11:15:29.853Z,45
2023-02-11T11:17:27.006Z,38
2023-02-11T11:19:27.382Z,34
2023-02-11T11:21:27.217Z,34
2023-02-11T11:23:30.202Z,34
2023-02-11T11:25:28.208Z,40
2023-02-11T11:27:27.822Z,38
2023-02-11T11:29:27.761Z,37
2023-02-11T11:31:28.001Z,40
2023-02-11T11:33:27.880Z,39
2023-02-11T11:35:30.872Z,39
2023-02-11T11:37:29.004Z,33
2023-02-11T11:39:34.724Z,39
2023-02-11T11:41:28.332Z,41
2023-02-11T11:43:28.439Z,38
2023-02-11T11:45:29.839Z,33
2023-02-11T11:47:30.974Z,30
2023-02-11T11:49:33.754Z,27
2023-02-11T11:51:28.818Z,27
2023-02-11T11:53:30.123Z,29
2023-02-11T11:55:33.876Z,32
2023-02-11T11:57:29.155Z,35
2023-02-11T11:59:34.105Z,31
2023-02-11T12:01:30.589Z,30
2023-02-11T12:03:30.262Z,32
2023-02-11T12:05:33.387Z,36
2023-02-11T12:07:29.658Z,36
2023-02-11T12:09:29.976Z,36
2023-02-11T12:11:30.121Z,32
2023-02-11T12:13:29.995Z,34
2023-02-11T12:15:33.902Z,40
2023-02-11T12:17:30.077Z,42
2023-02-11T12:19:30.383Z,32
2023-02-11T12:21:38.405Z,33
2023-02-11T12:23:37.685Z,34
2023-02-11T12:25:35.887Z,36
2023-02-11T12:27:34.757Z,36
2023-02-11T12:29:33.303Z,36
2023-02-11T12:31:30.818Z,34
2023-02-11T12:33:35.802Z,40
2023-02-11T12:35:31.072Z,40
2023-02-11T12:37:34.883Z,32
2023-02-11T12:39:31.150Z,24
2023-02-11T12:41:41.212Z,30
2023-02-11T12:43:40.330Z,41
2023-02-11T12:45:31.606Z,36
2023-02-11T12:47:33.223Z,42
2023-02-11T12:49:31.637Z,36
2023-02-11T12:51:31.955Z,30
2023-02-11T12:53:36.428Z,34
2023-02-11T12:55:32.102Z,29
2023-02-11T12:57:33.436Z,29
2023-02-11T12:59:32.343Z,33
2023-02-11T13:01:32.566Z,47
2023-02-11T13:03:33.508Z,31
2023-02-11T13:05:32.670Z,35
2023-02-11T13:07:33.033Z,38
2023-02-11T13:09:32.726Z,36
2023-02-11T13:11:32.982Z,36
2023-02-11T13:13:33.167Z,55
2023-02-11T13:15:33.152Z,36
2023-02-11T13:17:33.968Z,30
2023-02-11T13:19:38.068Z,32
2023-02-11T13:21:38.164Z,36
2023-02-11T13:23:33.542Z,37
2023-02-11T13:25:34.063Z,42
2023-02-11T13:27:33.780Z,36
2023-02-11T13:29:35.179Z,37
2023-02-11T13:31:36.079Z,33
2023-02-11T13:33:33.976Z,33
2023-02-11T13:35:34.177Z,35
2023-02-11T13:37:35.819Z,34
2023-02-11T13:39:34.326Z,36
2023-02-11T13:41:35.268Z,41
2023-02-11T13:43:42.450Z,35
2023-02-11T13:45:39.266Z,33
2023-02-11T13:47:36.357Z,114
2023-02-11T13:49:34.848Z,263
2023-02-11T13:51:40.016Z,60
2023-02-11T13:53:35.048Z,43
2023-02-11T13:55:35.207Z,40
2023-02-11T13:57:35.219Z,35
2023-02-11T13:59:38.707Z,36
2023-02-11T14:01:35.417Z,34
2023-02-11T14:03:35.522Z,32
2023-02-11T14:05:36.725Z,32
2023-02-11T14:07:37.812Z,32
2023-02-11T14:09:35.836Z,32
2023-02-11T14:11:35.941Z,29
2023-02-11T14:13:36.601Z,32
2023-02-11T14:15:36.109Z,29
2023-02-11T14:17:36.194Z,30
2023-02-11T14:19:37.859Z,28
2023-02-11T14:21:37.335Z,26
2023-02-11T14:23:36.551Z,26
2023-02-11T14:25:39.958Z,31
2023-02-11T14:27:36.577Z,41
2023-02-11T14:29:36.829Z,50
2023-02-11T14:31:36.911Z,46
2023-02-11T14:33:40.682Z,42
2023-02-11T14:35:37.116Z,40
2023-02-11T14:37:37.239Z,38
2023-02-11T14:39:37.315Z,48
2023-02-11T14:41:38.698Z,80
2023-02-11T14:43:37.567Z,176
2023-02-11T14:45:42.378Z,191
2023-02-11T14:47:37.500Z,94
2023-02-11T14:49:37.750Z,67
2023-02-11T14:51:37.889Z,101
2023-02-11T14:53:37.950Z,84
2023-02-11T14:55:38.010Z,63
2023-02-11T14:57:38.136Z,59
2023-02-11T14:59:38.407Z,61
2023-02-11T15:01:38.418Z,62
2023-02-11T15:03:38.435Z,53
2023-02-11T15:05:38.585Z,56
2023-02-11T15:07:38.635Z,59
2023-02-11T15:09:41.601Z,57
2023-02-11T15:11:42.300Z,55
2023-02-11T15:13:38.814Z,61
2023-02-11T15:15:45.556Z,62
2023-02-11T15:17:39.155Z,58
2023-02-11T15:19:45.411Z,58
2023-02-11T15:21:39.318Z,67
2023-02-11T15:23:39.402Z,91
2023-02-11T15:25:39.444Z,85
2023-02-11T15:27:39.568Z,63
2023-02-11T15:29:41.908Z,61
2023-02-11T15:31:44.706Z,60
2023-02-11T15:33:39.742Z,56
2023-02-11T15:35:39.852Z,56
2023-02-11T15:37:40.027Z,65
2023-02-11T15:39:40.309Z,73
2023-02-11T15:41:40.234Z,77
2023-02-11T15:43:44.682Z,69
2023-02-11T15:45:40.431Z,63
2023-02-11T15:47:46.836Z,64
2023-02-11T15:49:40.671Z,55
2023-02-11T15:51:40.710Z,57
2023-02-11T15:53:40.889Z,52
2023-02-11T15:55:40.919Z,53
2023-02-11T15:57:41.038Z,57
2023-02-11T15:59:41.028Z,54
2023-02-11T16:01:42.451Z,71
2023-02-11T16:03:41.388Z,72
2023-02-11T16:05:41.444Z,67
2023-02-11T16:07:43.349Z,72
2023-02-11T16:09:50.309Z,81
2023-02-11T16:11:41.713Z,78
2023-02-11T16:13:41.605Z,75
2023-02-11T16:15:41.841Z,68
2023-02-11T16:17:43.524Z,68
2023-02-11T16:19:42.098Z,68
2023-02-11T16:21:41.979Z,62
2023-02-11T16:23:42.243Z,55
2023-02-11T16:25:42.285Z,57
2023-02-11T16:27:42.374Z,62
2023-02-11T16:29:42.498Z,65
2023-02-11T16:31:42.531Z,60
2023-02-11T16:33:45.159Z,52
2023-02-11T16:35:42.894Z,47
2023-02-11T16:37:49.146Z,49
2023-02-11T16:39:42.796Z,48
2023-02-11T16:41:44.586Z,46
2023-02-11T16:43:43.133Z,40
2023-02-11T16:45:43.205Z,49
2023-02-11T16:47:43.182Z,50
2023-02-11T16:49:43.406Z,38
2023-02-11T16:51:48.366Z,42
2023-02-11T16:53:43.651Z,42
2023-02-11T16:55:46.913Z,39
2023-02-11T16:57:43.604Z,45
2023-02-11T16:59:47.172Z,38
2023-02-11T17:01:47.832Z,35
2023-02-11T17:03:43.985Z,33
2023-02-11T17:05:55.016Z,34
2023-02-11T17:07:44.198Z,39
2023-02-11T17:09:44.200Z,39
2023-02-11T17:13:44.334Z,30
2023-02-11T17:15:44.570Z,35
2023-02-11T17:17:44.644Z,33
2023-02-11T17:19:44.752Z,33
2023-02-11T17:21:51.233Z,36
2023-02-11T17:23:44.880Z,32
2023-02-11T17:25:44.869Z,32
2023-02-11T17:27:45.086Z,27
2023-02-11T17:29:45.218Z,33
2023-02-11T17:31:45.196Z,32
2023-02-11T17:33:45.298Z,32
2023-02-11T17:35:46.788Z,36
2023-02-11T17:37:45.636Z,41
2023-02-11T17:39:45.733Z,38
2023-02-11T17:41:45.739Z,39
2023-02-11T17:43:45.690Z,38
2023-02-11T17:45:45.837Z,38
2023-02-11T17:47:45.873Z,37
2023-02-11T17:49:45.996Z,38
2023-02-11T17:51:46.246Z,43
2023-02-11T17:53:48.973Z,46
2023-02-11T17:55:46.296Z,47
2023-02-11T17:57:50.127Z,36
2023-02-11T17:59:48.204Z,36
2023-02-11T18:01:46.672Z,39
2023-02-11T18:03:47.597Z,37
2023-02-11T18:05:46.892Z,35
2023-02-11T18:07:53.284Z,36
2023-02-11T18:09:47.023Z,42
2023-02-11T18:11:51.285Z,58
2023-02-11T18:13:54.277Z,54
2023-02-11T18:15:47.365Z,54
2023-02-11T18:17:47.380Z,64
2023-02-11T18:19:49.154Z,60
2023-02-11T18:21:47.448Z,53
2023-02-11T18:23:47.533Z,43
2023-02-11T18:25:47.635Z,42
2023-02-11T18:27:50.313Z,40
2023-02-11T18:29:47.797Z,36
2023-02-11T18:31:54.589Z,37
2023-02-11T18:33:47.985Z,37
2023-02-11T18:35:48.545Z,38
2023-02-11T18:37:51.867Z,39
2023-02-11T18:39:48.303Z,54
2023-02-11T18:41:49.074Z,50
2023-02-11T18:43:57.020Z,56
2023-02-11T18:45:52.382Z,77
2023-02-11T18:47:48.639Z,76
2023-02-11T18:49:48.923Z,68
2023-02-11T18:51:48.782Z,66
2023-02-11T18:53:49.021Z,70
2023-02-11T18:55:49.183Z,80
2023-02-11T18:57:54.051Z,94
2023-02-11T18:59:49.151Z,88
2023-02-11T19:01:49.499Z,98
2023-02-11T19:03:49.439Z,177
2023-02-11T19:05:56.620Z,134
2023-02-11T19:07:49.517Z,112
2023-02-11T19:09:50.210Z,124
2023-02-11T19:11:49.862Z,127
2023-02-11T19:13:49.810Z,121
2023-02-11T19:15:50.176Z,119
2023-02-11T19:17:49.968Z,129
2023-02-11T19:19:51.124Z,105
2023-02-11T19:21:50.282Z,111
2023-02-11T19:23:50.419Z,110
2023-02-11T19:25:50.743Z,95
2023-02-11T19:27:50.441Z,91
2023-02-11T19:29:55.489Z,86
2023-02-11T19:31:50.962Z,87
2023-02-11T19:33:50.719Z,77
2023-02-11T19:35:51.236Z,63
2023-02-11T19:39:51.097Z,69
2023-02-11T19:41:53.017Z,104
2023-02-11T19:43:51.279Z,93
2023-02-11T19:45:51.708Z,80
2023-02-11T19:47:51.444Z,75
2023-02-11T19:49:51.519Z,68
2023-02-11T19:51:51.651Z,59
2023-02-11T19:53:51.694Z,57
2023-02-11T19:55:52.025Z,54
2023-02-11T19:57:51.922Z,52
2023-02-11T19:59:51.858Z,54
2023-02-11T20:01:52.109Z,60
2023-02-11T20:03:52.227Z,61
2023-02-11T20:05:52.467Z,47
2023-02-11T20:07:56.563Z,43
2023-02-11T20:09:52.281Z,58
2023-02-11T20:11:52.358Z,133
2023-02-11T20:13:52.467Z,130
2023-02-11T20:15:52.957Z,76
2023-02-11T20:17:52.757Z,102
2023-02-11T20:19:52.948Z,113
2023-02-11T20:21:52.965Z,111
2023-02-11T20:23:52.901Z,108
2023-02-11T20:25:53.600Z,109
2023-02-11T20:27:53.106Z,114
2023-02-11T20:29:55.459Z,116
2023-02-11T20:31:53.562Z,129
2023-02-11T20:33:53.342Z,173
2023-02-11T20:35:53.718Z,173
2023-02-11T20:37:53.672Z,161
2023-02-11T20:39:53.659Z,154
2023-02-11T20:41:53.686Z,176
2023-02-11T20:43:53.805Z,181
2023-02-11T20:45:54.204Z,199
2023-02-11T20:47:55.873Z,185
2023-02-11T20:49:54.192Z,174
2023-02-11T20:51:54.450Z,163
2023-02-11T20:53:54.223Z,151
2023-02-11T20:55:54.327Z,145
2023-02-11T20:57:54.514Z,134
2023-02-11T21:01:54.886Z,134
2023-02-11T21:03:56.451Z,131
2023-02-11T21:05:56.348Z,130
2023-02-11T21:07:59.791Z,133
2023-02-11T21:09:55.052Z,135
2023-02-11T21:11:55.161Z,139
2023-02-11T21:13:55.236Z,142
2023-02-11T21:15:55.702Z,140
2023-02-11T21:17:55.362Z,141
2023-02-11T21:19:55.497Z,155
2023-02-11T21:21:55.432Z,134
2023-02-11T21:23:55.731Z,141
2023-02-11T21:25:55.888Z,136
2023-02-11T21:28:01.186Z,132
2023-02-11T21:29:55.798Z,137
2023-02-11T21:31:56.060Z,137
2023-02-11T21:33:56.022Z,151
2023-02-11T21:35:56.515Z,160
2023-02-11T21:37:56.150Z,150
2023-02-11T21:39:56.543Z,158
2023-02-11T21:41:56.344Z,171
2023-02-11T21:43:56.457Z,167
2023-02-11T21:45:56.851Z,168
2023-02-11T21:48:01.606Z,200
2023-02-11T21:49:56.681Z,209
2023-02-11T21:51:56.787Z,186
2023-02-11T21:53:56.903Z,173
2023-02-11T21:55:57.113Z,171
2023-02-11T21:57:57.150Z,189
2023-02-11T22:00:02.087Z,235
2023-02-11T22:01:57.381Z,228
2023-02-11T22:03:57.316Z,229
2023-02-11T22:05:57.790Z,254
2023-02-11T22:07:57.480Z,194
2023-02-11T22:09:57.719Z,177
2023-02-11T22:11:57.881Z,168
2023-02-11T22:13:57.828Z,162
2023-02-11T22:15:58.027Z,155
2023-02-11T22:17:57.950Z,145
2023-02-11T22:19:58.200Z,147
2023-02-11T22:21:58.255Z,139
2023-02-11T22:24:06.764Z,128
2023-02-11T22:25:58.329Z,126
2023-02-11T22:27:58.497Z,144
2023-02-11T22:29:58.502Z,137
2023-02-11T22:31:58.698Z,127
2023-02-11T22:33:58.676Z,129
2023-02-11T22:35:58.739Z,124
2023-02-11T22:37:59.667Z,113
2023-02-11T22:39:59.077Z,113
2023-02-11T22:41:59.017Z,145
2023-02-11T22:43:59.395Z,137
2023-02-11T22:45:59.412Z,126
2023-02-11T22:48:00.782Z,134
2023-02-11T22:49:59.396Z,133
2023-02-11T22:51:59.471Z,130
2023-02-11T22:53:59.698Z,142
2023-02-11T22:55:59.794Z,143
2023-02-11T22:57:59.871Z,154
2023-02-11T22:59:59.798Z,145
2023-02-11T23:02:00.054Z,145
2023-02-11T23:03:59.981Z,148
2023-02-11T23:06:00.141Z,150
2023-02-11T23:08:00.186Z,152
2023-02-11T23:10:00.216Z,153
2023-02-11T23:12:00.455Z,153
2023-02-11T23:14:00.429Z,159
2023-02-11T23:16:00.650Z,171
2023-02-11T23:18:00.601Z,159
2023-02-11T23:20:00.861Z,153
2023-02-11T23:22:02.350Z,149
2023-02-11T23:24:08.450Z,152
2023-02-11T23:26:03.830Z,147
2023-02-11T23:28:01.074Z,144
2023-02-11T23:30:01.157Z,148
2023-02-11T23:32:01.264Z,161
2023-02-11T23:34:01.282Z,161
2023-02-11T23:36:01.352Z,168
2023-02-11T23:40:01.760Z,138
2023-02-11T23:42:01.909Z,143
2023-02-11T23:44:01.739Z,125
2023-02-11T23:46:01.853Z,97
2023-02-11T23:48:01.884Z,99
2023-02-11T23:50:06.960Z,97
2023-02-11T23:52:02.580Z,100
2023-02-11T23:54:05.216Z,98
2023-02-11T23:56:02.216Z,95
2023-02-11T23:58:02.333Z,91
